Time;durP1;ratioP1;P1;durP2;ratioP2;P2;SDS_P1;SDS_P2;PMS_P1;PMS_P2;Temp;Humidity;BMP_temperature;BMP_pressure;BME280_temperature;BME280_humidity;BME280_pressure;Samples;Min_cycle;Max_cycle;Signal;HPM_P1;HPM_P2
2022/05/29 00:02:09;;;;;;;4.45;2.33;;;7.90;99.90;;;;;;5019753;28;20049;-76
2022/05/29 00:04:37;;;;;;;7.32;2.42;;;7.70;99.90;;;;;;5018672;28;20048;-76
2022/05/29 00:07:04;;;;;;;3.55;2.47;;;7.80;99.90;;;;;;5021354;28;20026;-76
2022/05/29 00:09:38;;;;;;;4.35;2.50;;;8.10;99.90;;;;;;5023918;28;20057;-75
2022/05/29 00:12:05;;;;;;;3.33;2.50;;;8.40;99.90;;;;;;5023632;28;20029;-76
2022/05/29 00:14:31;;;;;;;6.80;2.40;;;8.60;99.90;;;;;;5018858;28;20025;-76
2022/05/29 00:16:57;;;;;;;5.25;2.35;;;8.70;99.90;;;;;;5031057;28;20168;-76
2022/05/29 00:19:23;;;;;;;3.17;2.10;;;8.70;99.90;;;;;;5011481;28;20121;-75
2022/05/29 00:21:50;;;;;;;7.35;2.60;;;8.60;99.90;;;;;;5010393;28;20399;-74
2022/05/29 00:24:15;;;;;;;3.72;2.30;;;8.60;99.90;;;;;;5023652;28;20040;-75
2022/05/29 00:26:41;;;;;;;6.10;2.30;;;8.50;99.90;;;;;;5022474;28;20026;-74
2022/05/29 00:29:07;;;;;;;4.03;2.38;;;8.60;99.90;;;;;;5018063;28;20021;-74
2022/05/29 00:31:33;;;;;;;4.72;2.20;;;8.70;99.90;;;;;;5033907;28;20029;-76
2022/05/29 00:33:59;;;;;;;4.05;2.53;;;8.70;99.90;;;;;;5024859;28;20143;-75
2022/05/29 00:36:25;;;;;;;4.65;2.42;;;8.60;99.90;;;;;;5023872;28;20494;-75
2022/05/29 00:38:50;;;;;;;3.05;2.33;;;8.50;99.90;;;;;;5018118;28;20075;-75
2022/05/29 00:41:29;;;;;;;6.10;2.70;;;8.70;99.90;;;;;;5018919;28;20034;-75
2022/05/29 00:44:09;;;;;;;5.78;2.45;;;8.60;99.90;;;;;;5005325;28;20112;-75
2022/05/29 00:46:36;;;;;;;4.72;2.60;;;8.60;99.90;;;;;;5013381;28;20044;-75
2022/05/29 00:49:06;;;;;;;3.70;2.25;;;8.60;99.90;;;;;;5011511;28;20022;-74
2022/05/29 00:51:39;;;;;;;5.40;2.67;;;8.40;99.90;;;;;;5024333;28;20034;-74
2022/05/29 00:54:06;;;;;;;4.63;2.40;;;8.50;99.90;;;;;;5022284;28;20034;-74
2022/05/29 00:56:34;;;;;;;4.95;2.33;;;8.50;99.90;;;;;;5016561;28;20021;-75
2022/05/29 00:59:01;;;;;;;5.55;2.33;;;8.40;99.90;;;;;;5019611;28;20491;-75
2022/05/29 01:01:28;;;;;;;3.50;2.28;;;8.20;99.90;;;;;;5023078;28;20065;-76
2022/05/29 01:03:55;;;;;;;5.93;2.35;;;8.20;99.90;;;;;;5025261;28;20060;-76
2022/05/29 01:06:20;;;;;;;4.70;2.50;;;8.30;99.90;;;;;;5021518;28;20074;-76
2022/05/29 01:08:46;;;;;;;4.80;2.38;;;8.30;99.90;;;;;;5022802;28;20161;-76
2022/05/29 01:11:23;;;;;;;4.35;2.33;;;8.20;99.90;;;;;;5019596;28;20029;-76
2022/05/29 01:14:02;;;;;;;4.90;2.20;;;8.10;99.90;;;;;;5016911;28;20168;-75
2022/05/29 01:16:57;;;;;;;5.45;2.60;;;7.80;99.90;;;;;;5011972;28;20025;-75
2022/05/29 01:19:47;;;;;;;3.60;2.10;;;7.80;99.90;;;;;;5043671;28;20462;-74
2022/05/29 01:22:37;;;;;;;4.15;2.22;;;7.80;99.90;;;;;;5027657;28;20029;-75
2022/05/29 01:25:23;;;;;;;5.47;2.40;;;7.80;99.90;;;;;;5026745;28;20029;-76
2022/05/29 01:28:24;;;;;;;5.30;2.35;;;7.80;99.90;;;;;;5010256;28;20033;-75
2022/05/29 01:30:58;;;;;;;7.18;2.30;;;7.90;99.90;;;;;;5016082;28;20046;-75
2022/05/29 01:33:39;;;;;;;4.78;2.88;;;8.10;99.90;;;;;;5027961;28;20029;-75
2022/05/29 01:36:46;;;;;;;5.97;2.33;;;8.00;99.90;;;;;;5023929;28;20158;-75
2022/05/29 01:39:22;;;;;;;4.53;2.05;;;7.90;99.90;;;;;;5009588;28;20090;-76
2022/05/29 01:42:02;;;;;;;8.10;2.60;;;7.80;99.90;;;;;;5019068;28;20026;-76
2022/05/29 01:44:49;;;;;;;7.32;2.67;;;7.60;99.90;;;;;;5034207;28;20033;-76
2022/05/29 01:47:27;;;;;;;3.90;2.42;;;7.50;99.90;;;;;;5025649;28;20030;-76
2022/05/29 01:50:01;;;;;;;4.95;2.80;;;7.20;99.90;;;;;;5027629;28;20459;-78
2022/05/29 01:52:32;;;;;;;6.20;2.60;;;7.40;99.90;;;;;;5023498;28;20379;-77
2022/05/29 01:55:10;;;;;;;5.63;2.60;;;7.60;99.90;;;;;;5019135;28;20057;-76
2022/05/29 01:57:41;;;;;;;4.78;2.80;;;7.60;99.90;;;;;;5020592;28;20038;-76
2022/05/29 02:00:12;;;;;;;5.88;2.70;;;7.60;99.90;;;;;;5025816;28;20037;-75
2022/05/29 02:02:48;;;;;;;6.38;2.55;;;7.70;99.90;;;;;;5027071;28;20074;-75
2022/05/29 02:05:18;;;;;;;7.47;2.47;;;7.70;99.90;;;;;;5013973;28;20033;-75
2022/05/29 02:07:49;;;;;;;3.70;2.30;;;7.80;99.90;;;;;;5012657;28;20492;-76
2022/05/29 02:10:38;;;;;;;4.50;2.38;;;7.90;99.90;;;;;;5013330;28;20026;-76
2022/05/29 02:13:47;;;;;;;6.88;2.65;;;7.40;99.90;;;;;;5013668;28;20076;-76
2022/05/29 02:16:22;;;;;;;6.50;3.08;;;7.00;99.90;;;;;;4934946;29;20032;-76
2022/05/29 02:19:09;;;;;;;4.43;2.55;;;6.70;99.90;;;;;;4933823;29;20071;-75
2022/05/29 02:21:41;;;;;;;4.68;2.70;;;7.10;99.90;;;;;;4999681;28;20060;-76
2022/05/29 02:24:13;;;;;;;5.28;2.72;;;7.00;99.90;;;;;;5020229;28;20029;-75
2022/05/29 02:26:55;;;;;;;4.88;3.00;;;6.60;99.90;;;;;;5020620;28;20610;-75
2022/05/29 02:29:21;;;;;;;8.27;3.05;;;6.20;99.90;;;;;;5007933;28;20064;-75
2022/05/29 02:32:31;;;;;;;5.30;3.00;;;6.10;99.90;;;;;;5034267;28;20544;-75
2022/05/29 02:35:06;;;;;;;4.90;3.00;;;6.10;99.90;;;;;;4940523;29;20533;-77
2022/05/29 02:37:45;;;;;;;12.37;3.07;;;6.70;99.90;;;;;;4934480;29;20062;-76
2022/05/29 02:40:29;;;;;;;4.32;2.25;;;6.90;99.90;;;;;;4973523;28;20050;-76
2022/05/29 02:42:54;;;;;;;5.18;2.50;;;6.90;99.90;;;;;;5024751;28;20029;-77
2022/05/29 02:45:23;;;;;;;6.25;2.97;;;7.10;99.90;;;;;;5013913;28;20032;-76
2022/05/29 02:48:16;;;;;;;5.15;2.70;;;7.20;99.90;;;;;;5027177;28;20028;-77
2022/05/29 02:50:57;;;;;;;6.38;2.88;;;7.10;99.90;;;;;;5038349;28;20036;-74
2022/05/29 02:53:24;;;;;;;5.18;2.83;;;7.00;99.90;;;;;;5030240;28;20084;-75
2022/05/29 02:55:50;;;;;;;7.22;2.92;;;7.10;99.90;;;;;;5021248;28;20472;-75
2022/05/29 02:58:29;;;;;;;6.60;2.97;;;7.00;99.90;;;;;;5024886;28;20096;-75
2022/05/29 03:01:10;;;;;;;7.68;3.20;;;7.20;99.90;;;;;;5025608;28;20029;-75
2022/05/29 03:03:58;;;;;;;6.20;3.05;;;7.20;99.90;;;;;;5012824;28;20124;-76
2022/05/29 03:06:47;;;;;;;6.60;3.10;;;7.20;99.90;;;;;;5018774;28;20030;-77
2022/05/29 03:09:36;;;;;;;4.80;3.03;;;7.10;99.90;;;;;;5021111;28;20033;-76
2022/05/29 03:12:05;;;;;;;6.35;3.00;;;7.00;99.90;;;;;;5009571;28;20033;-76
2022/05/29 03:14:43;;;;;;;5.85;3.00;;;7.00;99.90;;;;;;5013199;28;20021;-77
2022/05/29 03:17:40;;;;;;;5.55;3.08;;;6.90;99.90;;;;;;5029333;28;20030;-76
2022/05/29 03:20:13;;;;;;;;;;;6.70;99.90;;;;;;5015405;28;20095;-77
2022/05/29 03:22:53;;;;;;;4.53;2.72;;;6.80;99.90;;;;;;5035810;28;20007;-78
2022/05/29 03:25:28;;;;;;;5.10;2.80;;;7.00;99.90;;;;;;5018878;28;20034;-75
2022/05/29 03:27:57;;;;;;;6.18;2.70;;;7.30;99.90;;;;;;5032340;28;20100;-76
2022/05/29 03:30:35;;;;;;;5.85;3.03;;;7.20;99.90;;;;;;5015618;28;20026;-76
2022/05/29 03:33:04;;;;;;;4.63;2.65;;;6.70;99.90;;;;;;5012478;28;20384;-76
2022/05/29 03:35:43;;;;;;;4.72;2.78;;;6.70;99.90;;;;;;5024367;28;20026;-76
2022/05/29 03:38:09;;;;;;;4.10;2.60;;;6.60;99.90;;;;;;5024041;28;20040;-75
2022/05/29 03:40:35;;;;;;;5.47;2.92;;;6.50;99.90;;;;;;5016715;28;20347;-77
2022/05/29 03:43:00;;;;;;;6.18;2.88;;;6.60;99.90;;;;;;5019254;28;20559;-76
2022/05/29 03:45:27;;;;;;;5.40;3.17;;;6.80;99.90;;;;;;5032669;28;20024;-76
2022/05/29 03:47:52;;;;;;;5.45;3.15;;;6.90;99.90;;;;;;5020022;28;20014;-76
2022/05/29 03:50:21;;;;;;;6.38;3.20;;;6.90;99.90;;;;;;5011362;28;20095;-76
2022/05/29 03:52:47;;;;;;;8.50;3.85;;;6.80;99.90;;;;;;5011975;28;20080;-75
2022/05/29 03:55:14;;;;;;;6.60;3.30;;;6.70;99.90;;;;;;5018338;28;20025;-73
2022/05/29 03:57:40;;;;;;;5.50;2.88;;;6.60;99.90;;;;;;5018663;28;20388;-73
2022/05/29 04:00:08;;;;;;;6.05;2.92;;;6.70;99.90;;;;;;5018332;28;20029;-73
2022/05/29 04:02:34;;;;;;;5.75;3.42;;;7.00;99.90;;;;;;5017996;28;20113;-74
2022/05/29 04:04:59;;;;;;;5.70;2.85;;;7.00;99.90;;;;;;5023665;28;20100;-75
2022/05/29 04:12:55;;;;;;;3.97;2.83;;;6.90;99.90;;;;;;5019160;28;20105;-74
2022/05/29 04:15:20;;;;;;;6.18;2.88;;;6.90;99.90;;;;;;5020190;28;20076;-74
2022/05/29 04:17:46;;;;;;;6.43;3.10;;;7.10;99.90;;;;;;5030125;28;20022;-76
2022/05/29 04:20:11;;;;;;;3.75;2.70;;;7.20;99.90;;;;;;5018077;28;20053;-75
2022/05/29 04:22:37;;;;;;;5.82;3.30;;;7.10;99.90;;;;;;5024699;28;20030;-75
2022/05/29 04:25:03;;;;;;;5.75;3.15;;;7.30;99.90;;;;;;5025039;28;20080;-77
2022/05/29 04:27:28;;;;;;;4.80;3.13;;;7.40;99.90;;;;;;5033811;28;20026;-76
2022/05/29 04:29:54;;;;;;;6.93;3.15;;;7.30;99.90;;;;;;5016517;28;20023;-76
2022/05/29 04:35:04;;;;;;;6.55;3.03;;;7.50;99.90;;;;;;5025657;28;20036;-76
2022/05/29 04:37:29;;;;;;;5.95;3.33;;;7.60;99.90;;;;;;5013581;28;20101;-76
2022/05/29 04:39:55;;;;;;;5.53;3.20;;;7.70;99.90;;;;;;5031478;28;20120;-76
2022/05/29 04:42:21;;;;;;;8.45;3.60;;;7.80;99.90;;;;;;5027175;28;20026;-76
2022/05/29 04:44:47;;;;;;;6.88;3.40;;;7.70;99.90;;;;;;5027520;28;20099;-76
2022/05/29 04:47:12;;;;;;;6.43;3.30;;;7.80;99.90;;;;;;5022703;28;20475;-76
2022/05/29 04:49:38;;;;;;;5.38;3.40;;;7.90;99.90;;;;;;5021724;28;20037;-76
2022/05/29 04:52:06;;;;;;;4.55;3.33;;;7.80;99.90;;;;;;5026276;28;20041;-74
2022/05/29 04:54:34;;;;;;;6.45;3.85;;;8.00;99.90;;;;;;5028144;28;20017;-76
2022/05/29 04:56:59;;;;;;;7.07;3.58;;;8.10;99.90;;;;;;5027176;28;20022;-75
2022/05/29 04:59:25;;;;;;;9.82;4.07;;;7.90;99.90;;;;;;5015471;28;20087;-76
2022/05/29 05:01:50;;;;;;;4.38;3.65;;;7.90;99.90;;;;;;5026790;28;20030;-75
2022/05/29 05:04:16;;;;;;;6.95;3.83;;;8.00;99.90;;;;;;5027280;28;20029;-76
2022/05/29 05:06:41;;;;;;;7.93;3.47;;;7.80;99.90;;;;;;5022612;28;20096;-75
2022/05/29 05:09:07;;;;;;;6.85;3.42;;;7.60;99.90;;;;;;5020506;28;20531;-76
2022/05/29 05:11:33;;;;;;;5.70;3.45;;;7.70;99.90;;;;;;5014434;28;20033;-75
2022/05/29 05:13:58;;;;;;;6.57;3.78;;;7.60;99.90;;;;;;5014359;28;20018;-76
2022/05/29 05:16:24;;;;;;;8.45;4.00;;;7.70;99.90;;;;;;5026245;28;20030;-76
2022/05/29 05:18:49;;;;;;;6.75;3.95;;;7.90;99.90;;;;;;5014172;28;20476;-76
2022/05/29 05:21:15;;;;;;;9.13;4.43;;;7.90;99.90;;;;;;5026805;28;20034;-75
2022/05/29 05:23:40;;;;;;;7.80;4.15;;;7.90;99.90;;;;;;5026782;28;20494;-75
2022/05/29 05:26:15;;;;;;;6.85;4.65;;;8.40;99.90;;;;;;5014826;28;20032;-75
2022/05/29 05:28:41;;;;;;;5.53;4.00;;;8.40;99.90;;;;;;5028960;28;20484;-75
2022/05/29 05:31:07;;;;;;;6.63;4.20;;;8.40;99.90;;;;;;5034153;28;20034;-76
2022/05/29 05:33:32;;;;;;;7.18;3.85;;;8.50;99.90;;;;;;5032421;28;20017;-74
2022/05/29 05:35:58;;;;;;;6.60;3.72;;;8.70;99.90;;;;;;5013168;28;20026;-75
2022/05/29 05:38:23;;;;;;;6.43;4.00;;;8.80;99.90;;;;;;5029729;28;20416;-75
2022/05/29 05:40:51;;;;;;;9.60;4.18;;;8.90;99.90;;;;;;5013653;28;20037;-76
2022/05/29 05:43:19;;;;;;;8.55;4.07;;;9.30;99.90;;;;;;5028693;28;20501;-76
2022/05/29 05:45:45;;;;;;;7.25;3.78;;;9.60;99.90;;;;;;5050429;28;20025;-78
2022/05/29 05:48:11;;;;;;;6.25;3.80;;;9.80;99.90;;;;;;5020666;28;20029;-76
2022/05/29 05:50:38;;;;;;;6.13;3.67;;;9.70;99.90;;;;;;5024684;28;20018;-76
2022/05/29 05:53:04;;;;;;;6.85;3.13;;;9.40;99.90;;;;;;5027934;28;20025;-75
2022/05/29 05:55:29;;;;;;;7.15;3.50;;;9.50;99.90;;;;;;5013207;28;20022;-76
2022/05/29 05:57:55;;;;;;;8.18;3.45;;;9.60;99.90;;;;;;5016950;28;20373;-78
2022/05/29 06:00:21;;;;;;;7.97;3.60;;;9.50;99.90;;;;;;5022969;28;20045;-78
2022/05/29 06:02:47;;;;;;;7.20;3.30;;;9.40;99.90;;;;;;5027632;28;20029;-74
2022/05/29 06:05:14;;;;;;;7.55;3.85;;;9.40;99.90;;;;;;5012556;28;20513;-71
2022/05/29 06:07:40;;;;;;;7.95;3.90;;;9.40;99.90;;;;;;5027280;28;20123;-75
2022/05/29 06:10:08;;;;;;;9.60;3.65;;;9.20;99.90;;;;;;5023447;28;20034;-76
2022/05/29 06:12:33;;;;;;;7.30;3.38;;;9.10;99.90;;;;;;5016542;28;20025;-76
2022/05/29 06:14:59;;;;;;;7.60;3.45;;;9.00;99.90;;;;;;5023630;28;20023;-75
2022/05/29 06:17:26;;;;;;;5.95;3.47;;;9.20;99.90;;;;;;5019952;28;20045;-76
2022/05/29 06:19:52;;;;;;;7.53;3.72;;;9.20;99.90;;;;;;5024222;28;20057;-76
2022/05/29 06:22:17;;;;;;;8.10;3.88;;;9.60;99.90;;;;;;5026699;28;20491;-76
2022/05/29 06:24:43;;;;;;;6.35;3.42;;;9.80;99.90;;;;;;5023096;28;20031;-76
2022/05/29 06:27:08;;;;;;;6.93;3.38;;;9.90;99.90;;;;;;5019026;28;20439;-75
2022/05/29 06:29:34;;;;;;;5.55;3.10;;;10.20;99.90;;;;;;5031944;28;20025;-76
2022/05/29 06:32:01;;;;;;;6.30;3.20;;;10.60;99.90;;;;;;5047735;28;20018;-76
2022/05/29 06:34:27;;;;;;;8.70;3.38;;;10.60;99.90;;;;;;5033119;28;20067;-76
2022/05/29 06:36:52;;;;;;;7.28;3.20;;;10.80;99.90;;;;;;5017698;28;20120;-76
2022/05/29 06:39:18;;;;;;;5.65;3.20;;;11.00;99.90;;;;;;5013238;28;20038;-76
2022/05/29 06:41:44;;;;;;;6.40;3.00;;;10.80;99.90;;;;;;5028070;28;20380;-76
2022/05/29 06:44:10;;;;;;;7.45;3.28;;;11.20;99.90;;;;;;5024203;28;20022;-76
2022/05/29 06:46:35;;;;;;;6.90;3.25;;;11.00;99.90;;;;;;5028633;28;20044;-76
2022/05/29 06:49:01;;;;;;;5.95;3.08;;;11.20;99.90;;;;;;5032705;28;20025;-76
2022/05/29 06:51:27;;;;;;;7.10;2.90;;;11.50;99.90;;;;;;5017394;28;20119;-76
2022/05/29 06:53:55;;;;;;;7.43;2.92;;;11.50;99.90;;;;;;5012752;28;20022;-76
2022/05/29 06:56:21;;;;;;;7.75;3.00;;;11.90;99.90;;;;;;5014019;28;20034;-75
2022/05/29 06:58:47;;;;;;;7.13;2.67;;;12.10;99.90;;;;;;5024219;28;20022;-75
2022/05/29 07:07:00;;;;;;;8.32;2.40;;;11.90;99.90;;;;;;5011717;28;20167;-76
2022/05/29 07:09:28;;;;;;;8.95;2.10;;;11.90;99.90;;;;;;5016326;28;20032;-76
2022/05/29 07:12:05;;;;;;;8.00;2.90;;;12.10;99.90;;;;;;5012111;28;20042;-76
2022/05/29 07:14:31;;;;;;;5.55;2.40;;;12.60;99.90;;;;;;5025648;28;20025;-76
2022/05/29 07:16:56;;;;;;;6.00;2.38;;;13.00;99.90;;;;;;5012588;28;20121;-75
2022/05/29 07:19:25;;;;;;;9.43;2.60;;;13.00;99.90;;;;;;5017424;28;20108;-75
2022/05/29 07:21:55;;;;;;;8.05;2.38;;;12.80;99.90;;;;;;5019775;28;20041;-75
2022/05/29 07:24:21;;;;;;;8.02;2.42;;;12.90;99.90;;;;;;5021711;28;20022;-75
2022/05/29 07:26:46;;;;;;;9.95;2.78;;;12.80;99.90;;;;;;5024745;28;20403;-76
2022/05/29 07:29:15;;;;;;;9.45;2.85;;;12.70;99.90;;;;;;5013302;28;20030;-76
2022/05/29 07:31:40;;;;;;;11.73;2.53;;;12.70;99.90;;;;;;5023224;28;20056;-76
2022/05/29 07:34:06;;;;;;;8.38;2.60;;;13.00;99.90;;;;;;5032540;28;20068;-76
2022/05/29 07:36:31;;;;;;;6.63;2.63;;;13.10;99.90;;;;;;5031826;28;20491;-76
2022/05/29 07:38:57;;;;;;;9.75;2.72;;;13.40;99.90;;;;;;5023993;28;20038;-75
2022/05/29 07:44:07;;;;;;;6.07;2.22;;;12.50;99.90;;;;;;5021555;28;20040;-75
2022/05/29 07:46:32;;;;;;;10.02;2.60;;;12.60;99.90;;;;;;5031683;28;20391;-76
2022/05/29 07:48:58;;;;;;;10.75;2.85;;;12.60;99.90;;;;;;5030203;28;20025;-76
2022/05/29 07:51:24;;;;;;;5.05;2.33;;;12.70;99.90;;;;;;5030723;28;20075;-76
2022/05/29 07:53:49;;;;;;;7.60;2.30;;;12.70;99.90;;;;;;5031583;28;20387;-77
2022/05/29 07:56:16;;;;;;;9.73;2.67;;;13.00;99.90;;;;;;5031464;28;20523;-76
2022/05/29 07:58:45;;;;;;;7.05;2.58;;;12.90;99.90;;;;;;5031541;28;20021;-76
2022/05/29 08:01:11;;;;;;;8.82;2.60;;;13.20;99.90;;;;;;5030875;28;20116;-76
2022/05/29 08:03:38;;;;;;;9.15;2.80;;;13.20;99.90;;;;;;5031352;28;20444;-76
2022/05/29 08:06:03;;;;;;;7.30;2.10;;;12.80;99.90;;;;;;5031402;28;20147;-76
2022/05/29 08:08:31;;;;;;;6.22;2.80;;;12.50;99.90;;;;;;5029877;28;20052;-76
2022/05/29 08:10:57;;;;;;;7.22;2.58;;;12.40;99.90;;;;;;5030804;28;20018;-76
2022/05/29 08:13:23;;;;;;;9.02;2.30;;;12.50;99.90;;;;;;5046181;28;20040;-76
2022/05/29 08:15:48;;;;;;;6.05;2.40;;;12.50;99.90;;;;;;5031308;28;20491;-76
2022/05/29 08:18:14;;;;;;;6.80;2.47;;;12.80;99.90;;;;;;5030349;28;20017;-76
2022/05/29 08:20:39;;;;;;;7.22;2.65;;;13.00;99.90;;;;;;5015080;28;20026;-76
2022/05/29 08:23:06;;;;;;;6.05;2.15;;;13.00;99.90;;;;;;5010262;28;20105;-76
2022/05/29 08:30:59;;;;;;;12.50;2.42;;;13.30;99.90;;;;;;5010935;28;20083;-76
2022/05/29 08:33:28;;;;;;;6.18;2.38;;;13.20;99.90;;;;;;5025504;28;20029;-76
2022/05/29 08:36:00;;;;;;;6.57;2.13;;;13.20;99.90;;;;;;5031276;28;20025;-75
2022/05/29 08:38:27;;;;;;;8.40;2.20;;;13.60;99.90;;;;;;5031193;28;20033;-76
2022/05/29 08:41:04;;;;;;;8.40;2.50;;;13.80;99.90;;;;;;5029131;28;20116;-75
2022/05/29 08:43:35;;;;;;;7.55;2.60;;;13.80;99.90;;;;;;5031041;28;20116;-75
2022/05/29 08:46:11;;;;;;;5.60;2.33;;;13.10;99.90;;;;;;5031020;28;20025;-77
2022/05/29 08:48:37;;;;;;;6.90;2.15;;;13.00;99.90;;;;;;5046370;28;20024;-76
2022/05/29 08:51:26;;;;;;;8.65;3.05;;;13.60;99.90;;;;;;5029276;28;20025;-76
2022/05/29 08:54:01;;;;;;;9.45;2.50;;;14.10;99.90;;;;;;5031078;28;20512;-76
2022/05/29 08:56:32;;;;;;;12.20;2.50;;;13.80;99.90;;;;;;5031300;28;20037;-77
2022/05/29 08:59:07;;;;;;;6.72;2.25;;;13.80;99.90;;;;;;5031086;28;20025;-75
2022/05/29 09:01:49;;;;;;;5.68;2.10;;;14.20;99.90;;;;;;5030314;28;20148;-76
2022/05/29 09:04:30;;;;;;;4.80;2.00;;;13.90;99.90;;;;;;5031034;28;20087;-76
2022/05/29 09:06:58;;;;;;;3.95;1.75;;;14.20;99.90;;;;;;5030988;28;20025;-76
2022/05/29 09:09:45;;;;;;;5.13;1.63;;;13.90;99.90;;;;;;5031106;28;20026;-75
2022/05/29 09:12:17;;;;;;;4.25;2.00;;;13.40;99.90;;;;;;5029067;28;20024;-77
2022/05/29 09:14:52;;;;;;;8.48;2.10;;;13.10;99.90;;;;;;5030908;28;20025;-76
2022/05/29 09:17:20;;;;;;;7.15;1.80;;;13.70;99.90;;;;;;5029546;28;20320;-76
2022/05/29 09:19:58;;;;;;;4.50;1.80;;;14.30;99.90;;;;;;5020713;28;20042;-76
2022/05/29 09:22:31;;;;;;;4.75;1.75;;;14.80;99.90;;;;;;5010596;28;20102;-77
2022/05/29 09:25:20;;;;;;;5.80;1.60;;;14.50;99.90;;;;;;5013030;28;20136;-76
2022/05/29 09:27:50;;;;;;;7.72;2.03;;;15.00;99.90;;;;;;5014608;28;20226;-76
2022/05/29 09:30:16;;;;;;;5.30;1.80;;;14.90;99.90;;;;;;5012601;28;20369;-76
2022/05/29 09:32:51;;;;;;;6.22;2.08;;;14.40;99.90;;;;;;5014507;28;20026;-76
2022/05/29 09:35:43;;;;;;;5.68;1.90;;;14.20;99.90;;;;;;5013375;28;20026;-76
2022/05/29 09:38:26;;;;;;;5.65;1.70;;;14.80;99.90;;;;;;5002472;28;20041;-76
2022/05/29 09:40:58;;;;;;;6.25;1.88;;;15.30;99.90;;;;;;5013761;28;20484;-76
2022/05/29 09:43:26;;;;;;;8.07;2.08;;;15.30;99.90;;;;;;5014385;28;20026;-76
2022/05/29 09:45:52;;;;;;;6.40;1.75;;;15.60;99.90;;;;;;5014127;28;20033;-76
2022/05/29 09:51:28;;;;;;;11.68;5.25;;;15.50;99.90;;;;;;5013490;28;20080;-76
2022/05/29 09:54:01;;;;;;;8.57;3.50;;;16.30;99.90;;;;;;5014046;28;20022;-76
2022/05/29 09:56:29;;;;;;;11.18;5.22;;;16.40;99.90;;;;;;5012880;28;20488;-76
2022/05/29 09:59:11;;;;;;;6.43;1.60;;;15.80;99.90;;;;;;5012584;28;20103;-76
2022/05/29 10:01:42;;;;;;;3.92;1.60;;;15.00;99.90;;;;;;5012400;28;20033;-76
2022/05/29 10:04:37;;;;;;;5.95;1.75;;;14.50;99.90;;;;;;5014195;28;20026;-76
2022/05/29 10:07:17;;;;;;;5.32;1.88;;;14.30;99.90;;;;;;5014122;28;20026;-76
2022/05/29 10:10:00;;;;;;;3.97;1.65;;;14.10;99.90;;;;;;5013862;28;20025;-76
2022/05/29 10:12:41;;;;;;;5.20;1.30;;;14.40;99.90;;;;;;5013200;28;20022;-75
2022/05/29 10:15:35;;;;;;;4.70;1.60;;;15.10;99.90;;;;;;5012650;28;20032;-75
2022/05/29 10:18:22;;;;;;;5.45;1.70;;;15.80;99.90;;;;;;5018729;28;20104;-76
2022/05/29 10:20:49;;;;;;;4.65;1.70;;;15.90;99.90;;;;;;5013983;28;20061;-76
2022/05/29 10:23:34;;;;;;;4.63;1.65;;;16.40;99.90;;;;;;5013778;28;20026;-76
2022/05/29 10:26:04;;;;;;;4.60;1.50;;;17.10;99.90;;;;;;5012246;28;20117;-76
2022/05/29 10:28:35;;;;;;;3.80;1.52;;;17.30;99.90;;;;;;5012012;28;20080;-77
2022/05/29 10:31:05;;;;;;;4.03;1.55;;;16.80;97.60;;;;;;5012749;28;20041;-76
2022/05/29 10:33:33;;;;;;;5.25;1.50;;;16.70;97.60;;;;;;5013419;28;20022;-76
2022/05/29 10:36:14;;;;;;;3.70;1.70;;;16.50;98.00;;;;;;5013126;28;20025;-76
2022/05/29 10:38:39;;;;;;;4.18;1.40;;;15.50;99.60;;;;;;5013582;28;20022;-76
2022/05/29 10:41:07;;;;;;;4.00;1.83;;;15.00;99.90;;;;;;5012811;28;20100;-76
2022/05/29 10:43:54;;;;;;;5.82;1.35;;;14.70;99.90;;;;;;5011707;28;20034;-76
2022/05/29 10:46:22;;;;;;;5.65;1.58;;;14.70;99.70;;;;;;5013351;28;20092;-76
2022/05/29 10:49:25;;;;;;;5.88;1.90;;;14.60;99.90;;;;;;5011904;28;20030;-76
2022/05/29 10:51:56;;;;;;;4.38;1.58;;;15.10;99.90;;;;;;5012554;28;20103;-76
2022/05/29 10:54:40;;;;;;;3.35;1.58;;;14.90;99.20;;;;;;5013379;28;20049;-76
2022/05/29 10:57:14;;;;;;;4.30;1.67;;;15.20;99.70;;;;;;5013319;28;20129;-76
2022/05/29 11:00:03;;;;;;;5.65;2.05;;;15.10;99.90;;;;;;5011689;28;20034;-76
2022/05/29 11:03:21;;;;;;;3.45;1.30;;;15.50;98.90;;;;;;5011098;28;20060;-77
2022/05/29 11:05:55;;;;;;;4.10;1.40;;;15.30;98.70;;;;;;5012589;28;20026;-76
2022/05/29 11:08:35;;;;;;;4.93;1.30;;;15.40;98.60;;;;;;5011576;28;20265;-77
2022/05/29 11:11:25;;;;;;;4.18;1.65;;;15.20;98.30;;;;;;5010573;28;20289;-77
2022/05/29 11:14:09;;;;;;;4.00;1.40;;;15.30;98.20;;;;;;5011063;28;20072;-76
2022/05/29 11:17:07;;;;;;;4.47;1.40;;;15.50;98.70;;;;;;5012590;28;20034;-75
2022/05/29 11:20:02;;;;;;;2.38;1.25;;;15.30;99.00;;;;;;4999251;28;20080;-76
2022/05/29 11:22:39;;;;;;;4.25;1.38;;;15.30;99.30;;;;;;5012009;28;20022;-76
2022/05/29 11:25:19;;;;;;;4.85;1.50;;;15.20;99.40;;;;;;5017080;28;20034;-75
2022/05/29 11:28:15;;;;;;;2.72;1.35;;;15.00;98.90;;;;;;5012208;28;20083;-75
2022/05/29 11:31:03;;;;;;;4.60;1.42;;;16.00;99.30;;;;;;5011821;28;20072;-76
2022/05/29 11:33:47;;;;;;;4.00;1.48;;;16.20;98.70;;;;;;5012369;28;20022;-76
2022/05/29 11:36:37;;;;;;;3.22;1.83;;;16.60;98.30;;;;;;5012688;28;20101;-76
2022/05/29 11:39:41;;;;;;;5.15;1.88;;;16.50;96.20;;;;;;5012117;28;20568;-75
2022/05/29 11:42:43;;;;;;;3.17;1.52;;;17.00;95.70;;;;;;5011017;28;20426;-76
2022/05/29 11:45:20;;;;;;;3.83;1.80;;;17.00;95.90;;;;;;5009430;28;20095;-76
2022/05/29 11:54:03;;;;;;;5.88;1.35;;;15.50;95.50;;;;;;5011946;28;20029;-76
2022/05/29 11:56:34;;;;;;;4.10;1.75;;;15.90;95.30;;;;;;5014738;28;20029;-76
2022/05/29 11:59:38;;;;;;;4.13;1.20;;;16.20;96.30;;;;;;5030554;28;20064;-76
2022/05/29 12:02:19;;;;;;;4.20;1.20;;;15.80;96.20;;;;;;5031154;28;20029;-76
2022/05/29 12:04:52;;;;;;;4.32;1.40;;;16.10;97.90;;;;;;5031653;28;20026;-76
2022/05/29 12:07:42;;;;;;;3.22;1.20;;;15.80;97.10;;;;;;5031564;28;20328;-76
2022/05/29 12:10:24;;;;;;;3.20;1.38;;;15.60;97.20;;;;;;5031553;28;20018;-76
2022/05/29 12:13:03;;;;;;;4.47;1.40;;;15.90;95.80;;;;;;5031647;28;20090;-76
2022/05/29 12:15:30;;;;;;;2.67;1.30;;;16.00;97.00;;;;;;5031495;28;20022;-76
2022/05/29 12:18:18;;;;;;;4.50;1.63;;;17.40;95.70;;;;;;5031206;28;20067;-76
2022/05/29 12:20:55;;;;;;;3.53;1.40;;;17.20;96.00;;;;;;5017658;28;20034;-75
2022/05/29 12:23:27;;;;;;;2.42;1.48;;;16.90;96.50;;;;;;5030581;28;20025;-76
2022/05/29 12:26:00;;;;;;;3.30;1.60;;;16.10;96.40;;;;;;5021991;28;20025;-76
2022/05/29 12:29:05;;;;;;;4.65;1.40;;;16.00;95.80;;;;;;5029954;28;20029;-76
2022/05/29 12:31:37;;;;;;;3.33;1.17;;;15.90;95.20;;;;;;5028916;28;20497;-76
2022/05/29 12:34:04;;;;;;;2.97;1.40;;;15.90;95.30;;;;;;5030254;28;20022;-76
2022/05/29 12:36:44;;;;;;;3.72;1.20;;;15.60;95.20;;;;;;5031238;28;20026;-75
2022/05/29 12:39:26;;;;;;;3.20;1.30;;;15.70;95.10;;;;;;5031214;28;20025;-76
2022/05/29 12:42:33;;;;;;;2.78;1.30;;;15.70;97.30;;;;;;5030665;28;20025;-76
2022/05/29 12:45:23;;;;;;;5.32;1.40;;;15.60;97.10;;;;;;5031102;28;20029;-76
2022/05/29 12:48:03;;;;;;;1.50;1.10;;;15.40;97.40;;;;;;5031071;28;20029;-77
2022/05/29 12:50:56;;;;;;;3.47;1.27;;;15.50;97.80;;;;;;4998739;28;20018;-76
2022/05/29 12:53:34;;;;;;;5.82;1.30;;;15.50;97.60;;;;;;5029332;28;20022;-76
2022/05/29 12:56:24;;;;;;;2.35;1.52;;;15.80;97.80;;;;;;5031082;28;20093;-75
2022/05/29 12:59:30;;;;;;;3.15;1.25;;;16.00;96.90;;;;;;5023725;28;20028;-76
2022/05/29 13:02:01;;;;;;;3.00;1.50;;;16.10;96.70;;;;;;5003202;28;20053;-75
2022/05/29 13:04:56;;;;;;;4.55;1.45;;;16.10;96.60;;;;;;5015338;28;20026;-76
2022/05/29 13:07:52;;;;;;;3.25;1.40;;;16.20;96.60;;;;;;5015064;28;20044;-76
2022/05/29 13:10:25;;;;;;;2.08;1.23;;;16.50;95.10;;;;;;5014181;28;20121;-76
2022/05/29 13:13:06;;;;;;;3.65;1.30;;;16.10;95.60;;;;;;5013595;28;20088;-76
2022/05/29 13:15:35;;;;;;;3.58;1.20;;;16.00;95.00;;;;;;5014755;28;20022;-77
2022/05/29 13:18:10;;;;;;;2.75;1.30;;;16.10;94.50;;;;;;5034434;28;20036;-76
2022/05/29 13:21:14;;;;;;;4.03;1.73;;;16.30;95.40;;;;;;5018725;28;20499;-76
2022/05/29 13:23:49;;;;;;;3.00;1.23;;;16.60;95.00;;;;;;5014657;28;20492;-76
2022/05/29 13:26:17;;;;;;;4.65;1.27;;;16.50;95.30;;;;;;5014708;28;20021;-76
2022/05/29 13:28:43;;;;;;;1.90;0.98;;;16.70;95.70;;;;;;5013184;28;20024;-76
2022/05/29 13:31:14;;;;;;;3.08;1.38;;;16.70;95.30;;;;;;5014141;28;20439;-76
2022/05/29 13:33:42;;;;;;;2.33;1.13;;;16.50;95.50;;;;;;5014649;28;20022;-76
2022/05/29 13:36:10;;;;;;;4.43;1.40;;;16.40;95.00;;;;;;5014498;28;20030;-76
2022/05/29 13:39:02;;;;;;;2.55;1.10;;;16.10;95.50;;;;;;5014499;28;20088;-76
2022/05/29 13:41:31;;;;;;;2.88;1.20;;;16.40;95.30;;;;;;5011082;28;20498;-76
2022/05/29 13:44:17;;;;;;;6.25;1.83;;;16.00;95.10;;;;;;5013164;28;20041;-74
2022/05/29 13:46:43;;;;;;;4.05;1.17;;;15.80;95.00;;;;;;5013068;28;20026;-76
2022/05/29 13:49:22;;;;;;;2.25;1.20;;;16.10;95.40;;;;;;5014270;28;20044;-76
2022/05/29 13:51:49;;;;;;;5.57;1.63;;;15.80;96.60;;;;;;5013448;28;20017;-76
2022/05/29 13:54:23;;;;;;;2.15;1.25;;;15.70;96.10;;;;;;5014266;28;20033;-76
2022/05/29 13:57:10;;;;;;;3.28;1.10;;;15.80;95.70;;;;;;5012758;28;20034;-76
2022/05/29 14:05:39;;;;;;;4.40;1.40;;;15.80;96.80;;;;;;5033890;28;20036;-76